Time;durP1;ratioP1;P1;durP2;ratioP2;P2;SDS_P1;SDS_P2;PMS_P1;PMS_P2;Temp;Humidity;BMP_temperature;BMP_pressure;BME280_temperature;BME280_humidity;BME280_pressure;Samples;Min_cycle;Max_cycle;Signal;HPM_P1;HPM_P2
2021/06/08 00:01:40;;;;;;;3.10;1.90;;;22.30;77.60;;;;;;5111056;28;20537;-84
2021/06/08 00:04:06;;;;;;;3.10;1.65;;;22.30;77.50;;;;;;5110643;28;20088;-83
2021/06/08 00:06:32;;;;;;;3.67;1.75;;;22.30;77.50;;;;;;5110860;28;20475;-84
2021/06/08 00:08:57;;;;;;;3.95;2.03;;;22.30;77.40;;;;;;5109783;28;20035;-83
2021/06/08 00:11:23;;;;;;;3.08;1.70;;;22.30;77.40;;;;;;5110348;28;20024;-83
2021/06/08 00:13:49;;;;;;;2.28;1.30;;;22.30;77.30;;;;;;5111468;28;20391;-83
2021/06/08 00:16:15;;;;;;;3.13;1.48;;;22.30;77.40;;;;;;5110458;28;20055;-83
2021/06/08 00:18:41;;;;;;;3.45;1.52;;;22.30;77.30;;;;;;5110896;28;20539;-83
2021/06/08 00:21:07;;;;;;;3.63;1.60;;;22.20;77.90;;;;;;5111274;28;20103;-83
2021/06/08 00:23:33;;;;;;;3.25;1.50;;;22.30;77.30;;;;;;5110586;28;20031;-83
2021/06/08 00:25:58;;;;;;;2.17;1.50;;;22.20;77.00;;;;;;5111171;28;20027;-83
2021/06/08 00:28:24;;;;;;;6.38;1.63;;;22.20;77.30;;;;;;5111155;28;20073;-83
2021/06/08 00:30:50;;;;;;;2.40;1.50;;;22.20;77.70;;;;;;5110676;28;20470;-83
2021/06/08 00:33:15;;;;;;;2.38;1.55;;;22.20;78.40;;;;;;5110263;28;20023;-82
2021/06/08 00:35:41;;;;;;;2.30;1.45;;;22.20;78.90;;;;;;5110812;28;20035;-83
2021/06/08 00:38:07;;;;;;;2.78;1.65;;;22.20;79.50;;;;;;5111146;28;20046;-82
2021/06/08 00:40:33;;;;;;;2.50;1.67;;;22.20;79.80;;;;;;5110953;28;20070;-83
2021/06/08 00:42:58;;;;;;;2.28;1.60;;;22.20;79.90;;;;;;5109761;28;20554;-83
2021/06/08 00:45:24;;;;;;;4.63;1.67;;;22.20;79.80;;;;;;5111055;28;20035;-83
2021/06/08 00:47:50;;;;;;;2.70;1.63;;;22.20;79.90;;;;;;5111097;28;20042;-82
2021/06/08 00:50:17;;;;;;;3.03;1.60;;;22.20;80.10;;;;;;5110827;28;20487;-82
2021/06/08 00:52:43;;;;;;;2.85;1.30;;;22.20;80.00;;;;;;5110710;28;20027;-82
2021/06/08 00:55:11;;;;;;;2.05;1.48;;;22.20;80.00;;;;;;5108918;28;20076;-82
2021/06/08 00:57:37;;;;;;;2.30;1.50;;;22.20;79.70;;;;;;5110844;28;20443;-82
2021/06/08 01:00:05;;;;;;;2.65;1.50;;;22.20;79.70;;;;;;5110714;28;20023;-82
2021/06/08 01:02:31;;;;;;;2.78;1.45;;;22.20;79.70;;;;;;5110668;28;20031;-83
2021/06/08 01:04:59;;;;;;;3.42;1.98;;;22.20;79.60;;;;;;5109372;28;20036;-83
2021/06/08 01:07:25;;;;;;;4.72;1.65;;;22.20;79.60;;;;;;5111018;28;20023;-82
2021/06/08 01:09:55;;;;;;;2.67;1.55;;;22.20;79.60;;;;;;5110477;28;20066;-83
2021/06/08 01:12:21;;;;;;;3.00;1.50;;;22.10;79.40;;;;;;5110323;28;20050;-83
2021/06/08 01:14:46;;;;;;;2.40;1.40;;;22.20;79.60;;;;;;5110026;28;20502;-83
2021/06/08 01:17:12;;;;;;;3.22;1.60;;;22.20;79.40;;;;;;5114701;28;20016;-81
2021/06/08 01:19:38;;;;;;;2.35;1.33;;;22.10;79.30;;;;;;5113270;28;20527;-82
2021/06/08 01:22:03;;;;;;;3.30;1.52;;;22.10;79.10;;;;;;5114462;28;20024;-81
2021/06/08 01:24:29;;;;;;;2.58;1.60;;;22.10;79.80;;;;;;5114044;28;20034;-81
2021/06/08 01:26:54;;;;;;;3.28;1.88;;;22.10;79.00;;;;;;5114838;28;20039;-81
2021/06/08 01:29:21;;;;;;;2.08;1.52;;;22.10;78.90;;;;;;5114428;28;20394;-80
2021/06/08 01:31:48;;;;;;;3.65;1.40;;;22.10;78.80;;;;;;5113944;28;20027;-81
2021/06/08 01:34:15;;;;;;;2.95;1.20;;;22.10;78.60;;;;;;5114231;28;20090;-80
2021/06/08 01:36:42;;;;;;;2.22;1.55;;;22.10;78.60;;;;;;5113415;28;20028;-80
2021/06/08 01:39:09;;;;;;;2.90;1.63;;;22.10;78.60;;;;;;5112888;28;20429;-80
2021/06/08 01:41:36;;;;;;;2.55;1.48;;;22.10;78.50;;;;;;5114053;28;20066;-83
2021/06/08 01:44:03;;;;;;;3.33;1.95;;;22.10;78.40;;;;;;5114154;28;20040;-83
2021/06/08 01:46:29;;;;;;;2.45;1.65;;;22.00;78.30;;;;;;5112664;28;20031;-83
2021/06/08 01:48:54;;;;;;;2.35;1.58;;;22.00;78.20;;;;;;5112968;28;20060;-83
2021/06/08 01:51:33;;;;;;;2.38;1.52;;;22.00;78.10;;;;;;5112761;28;20050;-83
2021/06/08 01:54:25;;;;;;;4.38;1.58;;;22.00;78.70;;;;;;5113640;28;20038;-83
2021/06/08 01:57:17;;;;;;;3.00;1.83;;;22.00;77.90;;;;;;5113357;28;20030;-82
2021/06/08 02:00:08;;;;;;;2.47;1.40;;;22.00;77.90;;;;;;5113777;28;20028;-83
2021/06/08 02:02:56;;;;;;;2.20;1.45;;;22.00;77.90;;;;;;5112629;28;20068;-83
2021/06/08 02:05:44;;;;;;;4.22;1.90;;;22.00;77.70;;;;;;5113723;28;20038;-83
2021/06/08 02:08:24;;;;;;;3.72;1.70;;;22.00;77.70;;;;;;5113141;28;20084;-83
2021/06/08 02:10:56;;;;;;;3.92;1.67;;;22.00;77.70;;;;;;5113706;28;20043;-82
2021/06/08 02:13:27;;;;;;;2.60;1.58;;;22.00;77.70;;;;;;5111768;28;20495;-83
2021/06/08 02:15:59;;;;;;;2.03;1.40;;;21.90;77.60;;;;;;5113712;28;20031;-83
2021/06/08 02:18:29;;;;;;;2.40;1.60;;;21.90;78.30;;;;;;5113680;28;20038;-83
2021/06/08 02:20:58;;;;;;;2.28;1.63;;;21.90;77.60;;;;;;5112803;28;20026;-83
2021/06/08 02:23:24;;;;;;;2.47;1.45;;;21.90;77.50;;;;;;5112110;28;20023;-82
2021/06/08 02:25:52;;;;;;;1.95;1.42;;;21.90;77.40;;;;;;5112990;28;20019;-83
2021/06/08 02:28:23;;;;;;;3.75;1.58;;;21.90;77.50;;;;;;5113060;28;20498;-84
2021/06/08 02:30:49;;;;;;;3.38;1.58;;;21.90;77.40;;;;;;5097149;28;20510;-84
2021/06/08 02:33:16;;;;;;;2.13;1.30;;;21.90;77.30;;;;;;5113218;28;20024;-83
2021/06/08 02:35:43;;;;;;;3.60;1.90;;;21.90;77.20;;;;;;5097143;28;20419;-84
2021/06/08 02:38:09;;;;;;;3.15;1.80;;;21.90;77.20;;;;;;5112252;28;20584;-83
2021/06/08 02:40:35;;;;;;;2.20;1.42;;;21.90;77.20;;;;;;5111601;28;20098;-83
2021/06/08 02:43:01;;;;;;;3.72;2.05;;;21.90;77.10;;;;;;5112687;28;20115;-82
2021/06/08 02:45:29;;;;;;;2.70;2.17;;;21.90;76.80;;;;;;5112999;28;20048;-82
2021/06/08 02:47:56;;;;;;;2.10;1.75;;;21.80;76.80;;;;;;5111621;28;20552;-83
2021/06/08 02:50:24;;;;;;;2.17;1.48;;;21.80;76.80;;;;;;5113114;28;20028;-83
2021/06/08 02:52:54;;;;;;;4.28;1.33;;;21.80;76.70;;;;;;5112908;28;20030;-82
2021/06/08 02:55:24;;;;;;;3.58;1.70;;;21.80;76.70;;;;;;5112985;28;20490;-82
2021/06/08 02:57:52;;;;;;;2.00;1.60;;;21.80;76.70;;;;;;5112433;28;20024;-83
2021/06/08 03:00:18;;;;;;;2.53;1.60;;;21.80;76.60;;;;;;5112839;28;20027;-82
2021/06/08 03:02:46;;;;;;;2.15;1.60;;;21.80;76.50;;;;;;5112472;28;20028;-83
2021/06/08 03:05:34;;;;;;;2.63;1.50;;;21.80;76.40;;;;;;5110552;28;20039;-82
2021/06/08 03:08:03;;;;;;;2.95;1.95;;;21.80;76.50;;;;;;5112318;28;20019;-82
2021/06/08 03:10:34;;;;;;;3.03;2.00;;;21.80;76.40;;;;;;5112248;28;20039;-82
2021/06/08 03:13:01;;;;;;;2.55;1.50;;;21.80;77.20;;;;;;5112797;28;20024;-83
2021/06/08 03:15:29;;;;;;;2.38;1.73;;;21.80;76.30;;;;;;5111033;28;20072;-82
2021/06/08 03:17:56;;;;;;;2.25;1.58;;;21.70;76.20;;;;;;5112861;28;20106;-82
2021/06/08 03:20:31;;;;;;;2.65;1.63;;;21.70;76.10;;;;;;5112400;28;20027;-83
2021/06/08 03:23:01;;;;;;;3.30;1.95;;;21.70;75.90;;;;;;5112759;27;20083;-82
2021/06/08 03:25:29;;;;;;;2.40;1.38;;;21.70;75.80;;;;;;5110568;28;20024;-83
2021/06/08 03:27:56;;;;;;;2.97;1.85;;;21.70;75.80;;;;;;5112193;28;20023;-80
2021/06/08 03:30:23;;;;;;;2.92;1.70;;;21.70;75.70;;;;;;5112809;28;20391;-80
2021/06/08 03:32:51;;;;;;;4.30;2.22;;;21.70;75.70;;;;;;5112214;28;20028;-80
2021/06/08 03:35:17;;;;;;;3.30;1.50;;;21.70;75.60;;;;;;5111543;28;20108;-80
2021/06/08 03:37:43;;;;;;;2.28;1.50;;;21.70;75.60;;;;;;5110497;28;20023;-81
2021/06/08 03:40:11;;;;;;;3.53;1.88;;;21.70;76.30;;;;;;5111599;28;20016;-81
2021/06/08 03:42:39;;;;;;;3.53;1.77;;;21.70;75.50;;;;;;5109844;28;20399;-81
2021/06/08 03:45:08;;;;;;;3.58;1.65;;;21.70;75.50;;;;;;5111516;28;20043;-81
2021/06/08 03:47:34;;;;;;;2.08;1.70;;;21.70;75.40;;;;;;5111400;28;20031;-80
2021/06/08 03:50:00;;;;;;;2.92;1.75;;;21.60;75.30;;;;;;5111601;28;20036;-80
2021/06/08 03:52:26;;;;;;;4.07;2.60;;;21.60;75.40;;;;;;5112051;28;20031;-80
2021/06/08 03:54:53;;;;;;;4.55;1.33;;;21.70;75.30;;;;;;5112166;28;20028;-79
2021/06/08 03:57:26;;;;;;;2.60;1.48;;;21.60;75.20;;;;;;5111577;28;20028;-80
2021/06/08 03:59:53;;;;;;;2.92;2.00;;;21.60;75.20;;;;;;5112225;28;20028;-80
2021/06/08 04:02:20;;;;;;;2.03;1.52;;;21.60;75.30;;;;;;5093198;28;20042;-82
2021/06/08 04:04:45;;;;;;;2.30;1.63;;;21.60;75.90;;;;;;5111381;28;20096;-82
2021/06/08 04:07:12;;;;;;;2.25;1.60;;;21.60;75.10;;;;;;5111367;28;20484;-82
2021/06/08 04:09:38;;;;;;;2.58;1.80;;;21.60;75.00;;;;;;5109562;28;20039;-83
2021/06/08 04:12:04;;;;;;;2.60;1.50;;;21.60;75.00;;;;;;5111577;28;20125;-83
2021/06/08 04:14:31;;;;;;;2.42;1.60;;;21.60;75.00;;;;;;5111427;28;20494;-83
2021/06/08 04:16:57;;;;;;;3.60;2.08;;;21.60;74.90;;;;;;5110776;28;20016;-82
2021/06/08 04:19:23;;;;;;;3.35;1.52;;;21.60;74.90;;;;;;5111539;28;20038;-83
2021/06/08 04:21:51;;;;;;;2.85;1.90;;;21.60;74.70;;;;;;5110926;28;20019;-83
2021/06/08 04:24:17;;;;;;;2.13;1.70;;;21.50;74.70;;;;;;5089859;28;20522;-83
2021/06/08 04:26:42;;;;;;;2.13;1.73;;;21.50;74.60;;;;;;5099976;28;20036;-83
2021/06/08 04:29:08;;;;;;;2.80;1.80;;;21.50;74.60;;;;;;5110571;28;20028;-83
2021/06/08 04:31:35;;;;;;;2.35;1.63;;;21.50;74.50;;;;;;5110850;28;20035;-82
2021/06/08 04:34:01;;;;;;;2.88;1.40;;;21.50;74.60;;;;;;5111044;28;20192;-82
2021/06/08 04:36:26;;;;;;;2.92;1.45;;;21.50;74.60;;;;;;5111421;28;20107;-82
2021/06/08 04:38:55;;;;;;;2.22;1.67;;;21.50;74.60;;;;;;5109359;28;20470;-82
2021/06/08 04:41:21;;;;;;;1.98;1.63;;;21.50;74.40;;;;;;5109721;28;20066;-81
2021/06/08 04:43:48;;;;;;;4.43;1.75;;;21.50;74.30;;;;;;5111063;28;20030;-81
2021/06/08 04:46:15;;;;;;;3.97;1.92;;;21.50;74.40;;;;;;5111293;28;20040;-81
2021/06/08 04:48:42;;;;;;;2.25;1.70;;;21.40;74.40;;;;;;5111225;28;20035;-82
2021/06/08 04:51:08;;;;;;;3.20;1.85;;;21.50;75.10;;;;;;5113366;28;20037;-81
2021/06/08 04:53:35;;;;;;;1.92;1.20;;;21.40;74.30;;;;;;5115032;28;20027;-82
2021/06/08 04:56:01;;;;;;;2.72;1.98;;;21.40;74.20;;;;;;5113978;28;20084;-81
2021/06/08 04:58:26;;;;;;;4.10;1.45;;;21.40;74.30;;;;;;5114797;28;20107;-81
2021/06/08 05:01:24;;;;;;;2.78;1.40;;;21.40;74.20;;;;;;5114494;28;20157;-82
2021/06/08 05:03:52;;;;;;;2.45;1.30;;;21.50;74.30;;;;;;5114581;28;20026;-81
2021/06/08 05:06:26;;;;;;;2.67;1.55;;;21.40;74.30;;;;;;5114996;28;20433;-83
2021/06/08 05:09:05;;;;;;;2.97;1.70;;;21.40;74.30;;;;;;5093528;28;20020;-82
2021/06/08 05:11:39;;;;;;;1.38;1.02;;;21.40;74.30;;;;;;5093124;28;20114;-81
2021/06/08 05:14:08;;;;;;;2.63;1.63;;;21.40;74.30;;;;;;5113370;28;20027;-82
2021/06/08 05:16:38;;;;;;;2.50;1.40;;;21.40;74.20;;;;;;5114687;28;20051;-82
2021/06/08 05:19:07;;;;;;;2.45;1.38;;;21.40;73.90;;;;;;5114376;28;20479;-83
2021/06/08 05:21:35;;;;;;;2.17;1.70;;;21.40;73.90;;;;;;5112911;28;20028;-82
2021/06/08 05:24:03;;;;;;;3.25;1.60;;;21.40;73.90;;;;;;5113407;28;20085;-81
2021/06/08 05:26:29;;;;;;;2.13;1.35;;;21.40;73.90;;;;;;5113606;28;20024;-80
2021/06/08 05:28:55;;;;;;;2.65;1.50;;;21.40;73.80;;;;;;5114245;28;20020;-80
2021/06/08 05:31:21;;;;;;;1.65;1.30;;;21.40;73.60;;;;;;5112902;28;20051;-79
2021/06/08 05:33:47;;;;;;;2.38;1.35;;;21.40;73.70;;;;;;5112966;28;20474;-82
2021/06/08 05:36:13;;;;;;;1.88;1.38;;;21.40;73.50;;;;;;5113726;28;20428;-81
2021/06/08 05:38:42;;;;;;;3.50;1.58;;;21.40;73.50;;;;;;5112998;28;20467;-80
2021/06/08 05:41:13;;;;;;;2.50;1.33;;;21.40;73.40;;;;;;5112705;28;20559;-80
2021/06/08 05:43:39;;;;;;;2.85;2.13;;;21.40;73.40;;;;;;5112220;28;20419;-80
2021/06/08 05:46:07;;;;;;;2.05;1.58;;;21.40;73.40;;;;;;5114100;28;20028;-81
2021/06/08 05:48:34;;;;;;;2.35;1.70;;;21.40;73.40;;;;;;5112695;27;20100;-81
2021/06/08 05:51:02;;;;;;;2.25;1.55;;;21.40;73.30;;;;;;5113456;28;20024;-80
2021/06/08 05:53:28;;;;;;;3.17;1.88;;;21.40;73.30;;;;;;5112841;28;20024;-81
2021/06/08 05:55:55;;;;;;;2.55;1.55;;;21.40;73.30;;;;;;5113038;28;20031;-81
2021/06/08 05:58:27;;;;;;;1.80;1.25;;;21.40;73.20;;;;;;5113282;28;20044;-83
2021/06/08 06:00:54;;;;;;;2.92;1.80;;;21.40;73.20;;;;;;5111116;28;20016;-79
2021/06/08 06:03:22;;;;;;;3.75;1.67;;;21.40;73.30;;;;;;5113175;28;20107;-77
2021/06/08 06:05:48;;;;;;;4.43;1.83;;;21.40;73.20;;;;;;5113232;28;20028;-78
2021/06/08 06:08:14;;;;;;;3.20;1.92;;;21.50;73.40;;;;;;5113339;28;20039;-79
2021/06/08 06:10:41;;;;;;;3.25;2.10;;;21.40;73.40;;;;;;5113423;28;20399;-79
2021/06/08 06:13:11;;;;;;;4.43;2.38;;;21.40;73.50;;;;;;5113198;28;20472;-79
2021/06/08 06:15:38;;;;;;;3.05;2.33;;;21.50;73.50;;;;;;5112538;28;20491;-79
2021/06/08 06:18:04;;;;;;;4.35;2.47;;;21.50;73.50;;;;;;5113009;28;20031;-80
2021/06/08 06:20:30;;;;;;;9.15;4.90;;;21.50;73.70;;;;;;5112633;28;20038;-82
2021/06/08 06:22:55;;;;;;;5.90;3.97;;;21.50;74.00;;;;;;5112509;28;20388;-80
2021/06/08 06:25:21;;;;;;;7.97;5.03;;;21.50;74.00;;;;;;5112651;28;20027;-80
2021/06/08 06:27:47;;;;;;;12.48;10.02;;;21.50;74.40;;;;;;5112766;28;20051;-80
2021/06/08 06:30:15;;;;;;;21.08;14.40;;;21.50;74.40;;;;;;5113409;28;20031;-82
2021/06/08 06:32:42;;;;;;;13.30;9.00;;;21.50;74.80;;;;;;5111815;28;20382;-79
2021/06/08 06:35:09;;;;;;;13.23;10.50;;;21.50;74.80;;;;;;5113457;28;20024;-79
2021/06/08 06:37:37;;;;;;;24.23;15.75;;;21.50;75.40;;;;;;5113138;28;20100;-79
2021/06/08 06:40:08;;;;;;;16.20;12.63;;;21.50;75.20;;;;;;5112817;28;20042;-79
2021/06/08 06:42:41;;;;;;;17.60;13.45;;;21.60;76.10;;;;;;5111829;28;20498;-79
2021/06/08 06:45:08;;;;;;;22.92;13.77;;;21.60;76.30;;;;;;5113375;28;20517;-80
2021/06/08 06:47:36;;;;;;;22.38;14.52;;;21.60;76.50;;;;;;5113233;28;20027;-79
2021/06/08 06:50:05;;;;;;;22.45;14.68;;;21.60;76.70;;;;;;5113040;28;20115;-79
2021/06/08 06:52:31;;;;;;;17.73;12.80;;;21.60;77.20;;;;;;5110880;28;20587;-77
2021/06/08 06:54:57;;;;;;;17.95;13.85;;;21.60;77.00;;;;;;5113077;28;20096;-80
2021/06/08 06:57:23;;;;;;;17.67;13.30;;;21.60;77.30;;;;;;5113169;28;20073;-78
2021/06/08 06:59:49;;;;;;;21.40;12.80;;;21.60;77.20;;;;;;5112353;28;20032;-76
2021/06/08 07:02:18;;;;;;;21.50;12.27;;;21.60;77.20;;;;;;5111435;28;20038;-77
2021/06/08 07:04:46;;;;;;;16.60;12.18;;;21.60;77.20;;;;;;5112523;28;20076;-77
2021/06/08 07:07:19;;;;;;;19.00;13.13;;;21.60;77.10;;;;;;5111618;28;20041;-76
2021/06/08 07:09:45;;;;;;;17.08;10.98;;;21.60;77.10;;;;;;5112257;28;20024;-77
2021/06/08 07:12:12;;;;;;;14.88;11.15;;;21.70;77.00;;;;;;5111750;28;20028;-77
2021/06/08 07:14:41;;;;;;;16.33;11.00;;;21.70;77.00;;;;;;5112053;28;20012;-77
2021/06/08 07:17:07;;;;;;;15.95;10.65;;;21.70;76.90;;;;;;5110519;28;20051;-76
2021/06/08 07:19:34;;;;;;;16.13;11.50;;;21.70;76.90;;;;;;5111619;28;20063;-76
2021/06/08 07:22:00;;;;;;;14.48;10.43;;;21.70;76.80;;;;;;5112488;28;20016;-79
2021/06/08 07:24:27;;;;;;;12.90;9.80;;;21.70;76.80;;;;;;5111628;28;20107;-76
2021/06/08 07:26:54;;;;;;;19.75;9.13;;;21.70;76.80;;;;;;5112458;28;20024;-77
2021/06/08 07:29:19;;;;;;;13.65;9.50;;;21.70;76.70;;;;;;5112164;28;20114;-77
2021/06/08 07:31:51;;;;;;;9.80;8.30;;;21.70;76.70;;;;;;5111057;28;20106;-77
2021/06/08 07:34:33;;;;;;;12.32;9.02;;;21.70;76.60;;;;;;5111897;28;20637;-78
2021/06/08 07:37:02;;;;;;;12.40;8.32;;;21.70;76.60;;;;;;5109849;28;20493;-77
2021/06/08 07:39:30;;;;;;;15.82;8.77;;;21.70;76.50;;;;;;5111854;28;20031;-78
2021/06/08 07:42:37;;;;;;;10.65;8.30;;;21.70;76.50;;;;;;5110384;28;20039;-78
2021/06/08 07:45:06;;;;;;;12.90;8.13;;;21.70;76.40;;;;;;5098844;28;20067;-78
2021/06/08 07:47:32;;;;;;;15.95;7.40;;;21.70;76.40;;;;;;5110198;28;20028;-78
2021/06/08 07:50:00;;;;;;;12.00;7.68;;;21.70;76.30;;;;;;5111806;28;20032;-77
2021/06/08 07:52:28;;;;;;;13.80;8.00;;;21.70;76.30;;;;;;5111274;28;20032;-77
2021/06/08 07:55:11;;;;;;;9.95;7.00;;;21.70;76.20;;;;;;5077783;28;20093;-78
2021/06/08 07:57:37;;;;;;;9.10;6.40;;;21.70;76.20;;;;;;5111728;28;20538;-79
2021/06/08 08:00:06;;;;;;;9.13;6.03;;;21.70;76.20;;;;;;5110612;28;20107;-78
2021/06/08 08:02:31;;;;;;;8.98;6.07;;;21.70;76.10;;;;;;5111657;28;20019;-77
2021/06/08 08:05:07;;;;;;;9.00;6.05;;;21.70;76.10;;;;;;5111185;28;20406;-77
2021/06/08 08:07:33;;;;;;;11.38;5.75;;;21.70;76.10;;;;;;5111408;28;20493;-77
2021/06/08 08:10:00;;;;;;;8.10;5.90;;;21.70;75.90;;;;;;5111845;28;20035;-77
2021/06/08 08:12:26;;;;;;;8.93;5.15;;;21.70;75.90;;;;;;5112027;28;20039;-78
2021/06/08 08:14:52;;;;;;;8.77;4.55;;;21.70;75.90;;;;;;5110766;28;20474;-76
2021/06/08 08:17:22;;;;;;;8.55;4.90;;;21.70;75.90;;;;;;5111444;28;20042;-77
2021/06/08 08:19:48;;;;;;;6.03;4.63;;;21.70;75.90;;;;;;5111054;28;20055;-78
2021/06/08 08:22:14;;;;;;;9.40;5.03;;;21.80;75.90;;;;;;5111606;28;20495;-78
2021/06/08 08:24:40;;;;;;;6.88;4.50;;;21.70;75.80;;;;;;5109645;28;20020;-77
2021/06/08 08:27:07;;;;;;;7.38;4.68;;;21.80;75.90;;;;;;5111220;28;20032;-77
2021/06/08 08:29:33;;;;;;;6.70;3.88;;;21.80;75.90;;;;;;5110998;28;20043;-78
2021/06/08 08:31:58;;;;;;;6.22;4.20;;;21.80;75.80;;;;;;5111521;28;20028;-78
2021/06/08 08:34:24;;;;;;;5.03;3.45;;;21.70;75.70;;;;;;5111704;28;20034;-78
2021/06/08 08:36:50;;;;;;;5.07;3.97;;;21.80;75.70;;;;;;5111283;28;20024;-78
2021/06/08 08:39:16;;;;;;;4.93;3.20;;;21.80;75.70;;;;;;5111321;28;20028;-78
2021/06/08 08:41:42;;;;;;;6.95;3.47;;;21.80;75.70;;;;;;5110987;28;20039;-79
2021/06/08 08:44:09;;;;;;;8.75;4.38;;;21.80;75.70;;;;;;5111432;28;20024;-79
2021/06/08 08:46:36;;;;;;;6.82;4.07;;;21.80;75.70;;;;;;5110275;28;20036;-78
2021/06/08 08:49:02;;;;;;;6.38;3.25;;;21.80;75.60;;;;;;5111037;28;20031;-77
2021/06/08 08:51:29;;;;;;;6.82;2.90;;;21.80;75.60;;;;;;5111156;28;20036;-78
2021/06/08 08:53:57;;;;;;;5.80;3.92;;;21.80;75.60;;;;;;5111512;28;20487;-77
2021/06/08 08:56:32;;;;;;;5.07;3.15;;;21.80;75.50;;;;;;5111439;28;20081;-78
2021/06/08 08:59:07;;;;;;;6.20;3.20;;;21.80;75.60;;;;;;5110182;28;20028;-78
2021/06/08 09:01:37;;;;;;;6.85;3.33;;;21.80;75.50;;;;;;5109478;28;20020;-78
2021/06/08 09:04:05;;;;;;;7.13;3.15;;;21.80;75.50;;;;;;5111189;28;20028;-79
2021/06/08 09:06:31;;;;;;;4.80;3.40;;;21.80;75.40;;;;;;5111081;28;20012;-78
2021/06/08 09:08:56;;;;;;;4.03;3.30;;;21.80;75.40;;;;;;5111063;28;20123;-78
2021/06/08 09:11:22;;;;;;;5.45;3.17;;;21.80;75.40;;;;;;5111480;28;20454;-78
2021/06/08 09:13:48;;;;;;;7.00;3.40;;;21.80;75.30;;;;;;5109955;28;20015;-78
2021/06/08 09:16:17;;;;;;;5.18;3.17;;;21.90;75.40;;;;;;5110681;28;20111;-79
2021/06/08 09:18:43;;;;;;;6.82;3.13;;;21.80;75.30;;;;;;5110906;28;20015;-78
2021/06/08 09:21:23;;;;;;;6.43;2.90;;;21.80;75.30;;;;;;5111068;28;20028;-79
2021/06/08 09:23:49;;;;;;;5.93;2.90;;;21.90;75.40;;;;;;5110184;28;20024;-78
2021/06/08 09:26:15;;;;;;;6.88;3.10;;;21.90;75.30;;;;;;5110404;28;20072;-80
2021/06/08 09:28:42;;;;;;;4.40;2.90;;;21.90;75.30;;;;;;5110697;28;20052;-78
2021/06/08 09:31:20;;;;;;;3.28;2.72;;;21.90;75.30;;;;;;5110769;28;20046;-78
2021/06/08 09:33:53;;;;;;;4.10;2.90;;;21.90;75.30;;;;;;5110656;28;20020;-79
2021/06/08 09:36:24;;;;;;;4.07;2.70;;;21.90;75.20;;;;;;5112885;28;20031;-78
2021/06/08 09:39:02;;;;;;;5.63;2.70;;;21.90;75.20;;;;;;5114267;28;20023;-78
2021/06/08 09:41:32;;;;;;;3.42;2.42;;;21.90;75.30;;;;;;5113899;28;20098;-78
2021/06/08 09:44:04;;;;;;;3.53;2.42;;;21.90;75.20;;;;;;5114487;28;20390;-78
2021/06/08 09:47:05;;;;;;;4.50;2.65;;;21.90;75.30;;;;;;5113623;28;20402;-78
2021/06/08 09:49:31;;;;;;;4.97;2.88;;;21.90;75.30;;;;;;5011480;28;20026;-78
2021/06/08 09:52:00;;;;;;;4.32;2.35;;;21.90;75.30;;;;;;5093298;28;20047;-78
2021/06/08 09:54:38;;;;;;;2.90;2.20;;;21.90;75.30;;;;;;5114351;28;20383;-79
2021/06/08 09:57:17;;;;;;;10.27;2.50;;;21.90;75.30;;;;;;5112813;28;20027;-79
2021/06/08 09:59:46;;;;;;;5.22;2.40;;;21.90;75.30;;;;;;5113875;28;20042;-78
2021/06/08 10:02:44;;;;;;;4.43;2.42;;;21.90;75.30;;;;;;5112351;28;20103;-78
2021/06/08 10:05:18;;;;;;;4.65;2.75;;;21.90;75.20;;;;;;5112452;28;20057;-77
2021/06/08 10:07:46;;;;;;;4.15;2.50;;;22.00;75.30;;;;;;5113798;28;20027;-78
2021/06/08 10:10:14;;;;;;;5.97;2.25;;;21.90;75.20;;;;;;5113610;28;20081;-78
2021/06/08 10:12:59;;;;;;;3.17;2.13;;;21.90;75.30;;;;;;5112698;28;20390;-78
2021/06/08 10:15:26;;;;;;;3.80;2.60;;;21.90;75.20;;;;;;5113282;28;20035;-77
2021/06/08 10:18:00;;;;;;;4.68;2.25;;;22.00;75.30;;;;;;5113090;28;20077;-77
2021/06/08 10:20:29;;;;;;;4.75;2.72;;;22.00;75.30;;;;;;5113049;28;20134;-78
2021/06/08 10:22:55;;;;;;;3.35;2.08;;;22.00;75.40;;;;;;5113468;28;20517;-78
2021/06/08 10:25:21;;;;;;;3.63;2.10;;;22.00;75.50;;;;;;5113635;28;20026;-78
2021/06/08 10:27:48;;;;;;;2.55;1.80;;;22.00;76.20;;;;;;5113001;28;20102;-77
2021/06/08 10:30:14;;;;;;;2.70;2.10;;;22.00;75.40;;;;;;5113145;28;20031;-78
2021/06/08 10:32:40;;;;;;;2.42;1.80;;;22.00;75.50;;;;;;5111869;28;20027;-77
2021/06/08 10:35:08;;;;;;;4.40;2.17;;;22.00;75.50;;;;;;5113334;28;20104;-82
2021/06/08 10:37:36;;;;;;;5.60;2.05;;;22.00;75.70;;;;;;5111337;28;20024;-77
2021/06/08 10:40:03;;;;;;;2.65;2.00;;;22.00;76.70;;;;;;5113320;28;20024;-78
2021/06/08 10:42:29;;;;;;;2.65;1.90;;;22.10;77.90;;;;;;5111766;28;20035;-81
2021/06/08 10:45:04;;;;;;;2.33;1.80;;;22.10;78.40;;;;;;5112095;28;20149;-81
2021/06/08 10:47:36;;;;;;;3.90;2.30;;;22.10;77.90;;;;;;5111571;28;20082;-80
2021/06/08 10:50:20;;;;;;;3.95;2.25;;;22.10;77.90;;;;;;5113082;28;20032;-78
2021/06/08 10:52:46;;;;;;;3.47;2.25;;;22.10;77.50;;;;;;5112746;28;20031;-80
2021/06/08 10:55:13;;;;;;;5.53;2.33;;;22.10;77.60;;;;;;5113276;28;20039;-82
2021/06/08 10:57:48;;;;;;;4.72;2.45;;;22.20;77.70;;;;;;5112913;28;20161;-81
2021/06/08 11:00:26;;;;;;;;;;;22.10;78.10;;;;;;5112650;28;20031;-81
2021/06/08 11:02:56;;;;;;;4.18;2.55;;;22.20;78.10;;;;;;5103451;28;20651;-81
2021/06/08 11:05:48;;;;;;;4.05;2.78;;;22.20;78.70;;;;;;5112746;28;20102;-78
2021/06/08 11:08:15;;;;;;;3.90;2.47;;;22.20;78.50;;;;;;5111332;28;20026;-78
2021/06/08 11:10:43;;;;;;;5.18;2.42;;;22.20;78.40;;;;;;5112542;28;20031;-77
2021/06/08 11:13:11;;;;;;;2.90;2.15;;;22.20;78.30;;;;;;5112556;28;20028;-77
2021/06/08 11:15:37;;;;;;;3.38;2.03;;;22.30;78.30;;;;;;5112354;28;20475;-78
2021/06/08 11:18:25;;;;;;;4.55;2.05;;;22.30;78.40;;;;;;5112567;28;20390;-78
2021/06/08 11:21:03;;;;;;;3.83;2.63;;;22.30;78.30;;;;;;5112362;28;20027;-76
2021/06/08 11:23:32;;;;;;;5.68;2.42;;;22.30;78.20;;;;;;5112386;28;20039;-78
2021/06/08 11:25:58;;;;;;;7.38;2.72;;;22.30;78.30;;;;;;5112592;28;20417;-76
2021/06/08 11:28:43;;;;;;;3.72;2.20;;;22.30;79.00;;;;;;5112624;28;20153;-77
2021/06/08 11:31:09;;;;;;;4.93;2.70;;;22.40;78.60;;;;;;5111147;28;20035;-78
2021/06/08 11:33:42;;;;;;;4.03;2.63;;;22.40;78.70;;;;;;5111117;28;20417;-79
2021/06/08 11:36:20;;;;;;;3.63;2.20;;;22.40;78.60;;;;;;5110909;28;20023;-78
2021/06/08 11:38:48;;;;;;;7.47;2.33;;;22.40;78.60;;;;;;5109084;28;20024;-78
2021/06/08 11:41:14;;;;;;;4.55;2.22;;;22.40;79.00;;;;;;5110328;28;20089;-77
2021/06/08 11:43:47;;;;;;;5.22;2.30;;;22.40;79.00;;;;;;5109022;28;20023;-78
2021/06/08 11:46:17;;;;;;;4.40;2.30;;;22.50;79.60;;;;;;5110420;28;20023;-77
2021/06/08 11:48:47;;;;;;;5.18;2.33;;;22.50;79.80;;;;;;5110310;28;20082;-77
2021/06/08 11:51:20;;;;;;;5.30;2.42;;;22.50;80.50;;;;;;5110288;28;20035;-78
2021/06/08 11:54:17;;;;;;;6.72;2.38;;;22.50;80.50;;;;;;5109856;28;20027;-78
2021/06/08 11:56:42;;;;;;;6.07;2.30;;;22.60;80.50;;;;;;5109298;28;20024;-78
2021/06/08 11:59:08;;;;;;;3.90;2.30;;;22.60;80.20;;;;;;5110378;28;20029;-78
2021/06/08 12:01:40;;;;;;;7.78;2.72;;;22.60;80.00;;;;;;5110560;28;20506;-77
2021/06/08 12:04:06;;;;;;;3.42;2.10;;;22.60;80.00;;;;;;5110425;28;20458;-79
2021/06/08 12:07:08;;;;;;;4.95;2.35;;;22.60;79.90;;;;;;5111372;28;20055;-79
2021/06/08 12:09:43;;;;;;;3.08;2.25;;;22.60;79.60;;;;;;5048251;28;20451;-80
2021/06/08 12:12:13;;;;;;;4.70;2.20;;;22.60;79.60;;;;;;5102619;28;20122;-80
2021/06/08 12:14:54;;;;;;;4.72;1.95;;;22.70;79.70;;;;;;5111144;28;20104;-78
2021/06/08 12:17:20;;;;;;;5.30;2.15;;;22.60;79.60;;;;;;5111779;28;20047;-79
2021/06/08 12:19:46;;;;;;;4.18;2.33;;;22.70;79.50;;;;;;5111508;28;20486;-81
2021/06/08 12:22:27;;;;;;;4.30;2.28;;;22.60;79.40;;;;;;5110275;28;20059;-80
2021/06/08 12:25:01;;;;;;;4.10;2.08;;;22.70;79.40;;;;;;5111751;28;20030;-80
2021/06/08 12:27:34;;;;;;;3.50;2.00;;;22.70;79.40;;;;;;5109869;28;20089;-80
2021/06/08 12:30:01;;;;;;;6.28;2.40;;;22.70;79.10;;;;;;5111098;28;20459;-80
2021/06/08 12:32:27;;;;;;;3.38;2.17;;;22.70;79.00;;;;;;5111238;28;20042;-80
2021/06/08 12:34:54;;;;;;;3.63;1.88;;;22.70;78.80;;;;;;5111239;28;20099;-79
2021/06/08 12:37:24;;;;;;;4.50;2.58;;;22.70;78.70;;;;;;5110996;28;20027;-79
2021/06/08 12:39:58;;;;;;;7.50;2.30;;;22.70;78.50;;;;;;5110831;28;20023;-80
2021/06/08 12:42:25;;;;;;;2.35;1.58;;;22.70;78.40;;;;;;5111127;28;20039;-80
2021/06/08 12:44:52;;;;;;;3.45;2.50;;;22.70;78.40;;;;;;5111175;28;20019;-82
2021/06/08 12:47:24;;;;;;;4.47;2.22;;;22.70;78.30;;;;;;5110997;28;20032;-81
2021/06/08 12:49:51;;;;;;;2.42;1.83;;;22.70;78.30;;;;;;5110754;28;20085;-83
2021/06/08 12:52:19;;;;;;;2.63;1.80;;;22.70;78.20;;;;;;5111453;28;20909;-81
2021/06/08 12:54:51;;;;;;;3.97;2.33;;;22.70;78.20;;;;;;5110795;28;20479;-84
2021/06/08 12:57:26;;;;;;;3.75;2.00;;;22.70;78.10;;;;;;5109805;28;20389;-82